KFDR/FDR METAR and TAF weather

Enter ICAO airport designator
Station Type Date Time Source
KFDR METAR 2020/09/22 04:53 UTC NOAA

KFDR 220453Z AUTO 10004KT 10SM CLR 19/16 A3010 RMK AO2 SLP180 T01940161


Station Type Date Time Source
KFDR Decoded METAR 2020/09/22 04:53 UTC NOAA

FREDERICK MUNICIPAL AIRPORT, OK, United States (KFDR) 34-21N 98-59W 377M
Sep 22, 2020 - 12:53 AM EDT / 2020.09.22 0453 UTC
Wind: from the E (100 degrees) at 5 MPH (4 KT):0
Visibility: 10 mile(s):0
Sky conditions: clear
Temperature: 66.9 F (19.4 C)
Dew Point: 61.0 F (16.1 C)
Relative Humidity: 81%
Pressure (altimeter): 30.1 in. Hg (1019 hPa)
ob: KFDR 220453Z AUTO 10004KT 10SM CLR 19/16 A3010 RMK AO2 SLP180 T01940161
cycle: 5

Station Type Date Time Source
KFDR TAF UTC NOAA

Error!

Example: see airport list